createdAt,value
2022-08-09T00:01:48.401Z,1.20
2022-08-09T00:04:34.588Z,1.20
2022-08-09T00:07:07.800Z,1.80
2022-08-09T00:09:41.771Z,1.17
2022-08-09T00:12:15.508Z,1.63
2022-08-09T00:14:54.442Z,1.27
2022-08-09T00:18:05.077Z,1.30
2022-08-09T00:20:15.790Z,1.50
2022-08-09T00:22:47.223Z,1.08
2022-08-09T00:25:23.254Z,1.30
2022-08-09T00:28:01.400Z,1.30
2022-08-09T00:30:33.820Z,1.40
2022-08-09T00:33:03.062Z,1.38
2022-08-09T00:35:43.525Z,1.38
2022-08-09T00:38:13.978Z,1.17
2022-08-09T00:40:53.280Z,1.30
2022-08-09T00:44:13.138Z,1.20
2022-08-09T00:46:28.355Z,1.40
2022-08-09T00:49:01.603Z,1.08
2022-08-09T00:51:34.014Z,1.23
2022-08-09T00:54:12.103Z,1.17
2022-08-09T00:56:46.424Z,1.52
2022-08-09T00:59:20.183Z,1.40
2022-08-09T01:02:07.661Z,1.40
2022-08-09T01:04:47.703Z,1.40
2022-08-09T01:07:37.720Z,1.25
2022-08-09T01:10:28.938Z,1.20
2022-08-09T01:13:07.305Z,1.35
2022-08-09T01:15:52.052Z,1.20
2022-08-09T01:18:29.864Z,1.50
2022-08-09T01:21:13.048Z,1.30
2022-08-09T01:24:02.941Z,1.30
2022-08-09T01:27:01.373Z,1.40
2022-08-09T01:29:41.014Z,1.25
2022-08-09T01:32:31.908Z,1.20
2022-08-09T01:35:37.398Z,1.17
2022-08-09T01:38:15.543Z,1.40
2022-08-09T01:40:52.918Z,1.38
2022-08-09T01:43:50.200Z,1.30
2022-08-09T01:46:24.823Z,1.20
2022-08-09T01:49:10.392Z,1.20
2022-08-09T01:51:44.633Z,1.20
2022-08-09T01:54:27.326Z,1.25
2022-08-09T01:57:04.254Z,1.33
2022-08-09T01:59:50.838Z,1.30
2022-08-09T02:02:31.272Z,1.58
2022-08-09T02:05:05.415Z,1.75
2022-08-09T02:08:40.414Z,1.60
2022-08-09T02:10:39.712Z,1.85
2022-08-09T02:13:14.126Z,1.60
2022-08-09T02:15:50.584Z,1.40
2022-08-09T02:18:23.796Z,1.50
2022-08-09T02:20:57.797Z,1.50
2022-08-09T02:23:39.803Z,1.77
2022-08-09T02:26:27.143Z,1.80
2022-08-09T02:29:00.328Z,1.80
2022-08-09T02:31:35.537Z,1.90
2022-08-09T02:34:13.442Z,1.70
2022-08-09T02:36:57.428Z,1.70
2022-08-09T02:39:33.449Z,1.88
2022-08-09T02:42:07.171Z,1.65
2022-08-09T02:44:39.638Z,1.75
2022-08-09T02:47:15.255Z,2.08
2022-08-09T02:50:01.342Z,1.60
2022-08-09T02:52:40.990Z,2.25
2022-08-09T02:55:20.214Z,1.58
2022-08-09T02:58:00.774Z,1.92
2022-08-09T03:00:57.984Z,1.95
2022-08-09T03:04:05.757Z,1.80
2022-08-09T03:06:21.535Z,1.63
2022-08-09T03:08:52.972Z,1.77
2022-08-09T03:11:29.778Z,1.60
2022-08-09T03:14:14.566Z,1.90
2022-08-09T03:16:48.240Z,1.63
2022-08-09T03:19:58.054Z,2.38
2022-08-09T03:22:24.997Z,1.90
2022-08-09T03:25:21.898Z,1.65
2022-08-09T03:27:51.996Z,2.00
2022-08-09T03:30:29.183Z,2.33
2022-08-09T03:33:05.632Z,2.17
2022-08-09T03:36:13.666Z,2.25
2022-08-09T03:38:35.572Z,2.17
2022-08-09T03:41:07.038Z,2.33
2022-08-09T03:43:38.632Z,2.40
2022-08-09T03:46:20.666Z,2.33
2022-08-09T03:49:03.959Z,2.40
2022-08-09T03:51:56.366Z,2.80
2022-08-09T03:54:34.372Z,2.53
2022-08-09T03:57:18.297Z,2.70
2022-08-09T04:00:00.752Z,3.20
2022-08-09T04:03:11.745Z,2.70
2022-08-09T04:05:45.021Z,2.95
2022-08-09T04:08:15.900Z,2.47
2022-08-09T04:10:48.028Z,2.50
2022-08-09T04:13:20.141Z,2.58
2022-08-09T04:16:20.293Z,2.50
2022-08-09T04:18:51.063Z,2.40
2022-08-09T04:21:20.836Z,2.67
2022-08-09T04:23:54.357Z,3.38
2022-08-09T04:26:35.098Z,3.25
2022-08-09T04:29:12.105Z,3.13
2022-08-09T04:31:47.271Z,2.70
2022-08-09T04:34:19.105Z,2.92
2022-08-09T04:37:00.090Z,2.92
2022-08-09T04:39:31.465Z,2.90
2022-08-09T04:42:02.731Z,2.90
2022-08-09T04:44:33.051Z,2.90
2022-08-09T04:47:05.643Z,2.58
2022-08-09T04:49:54.215Z,2.42
2022-08-09T04:52:27.515Z,2.83
2022-08-09T04:55:03.974Z,3.33
2022-08-09T04:57:58.748Z,3.30
2022-08-09T05:00:25.499Z,3.00
2022-08-09T05:03:30.227Z,2.78
2022-08-09T05:05:51.928Z,2.70
2022-08-09T05:08:22.901Z,2.75
2022-08-09T05:11:01.074Z,2.83
2022-08-09T05:13:33.102Z,3.10
2022-08-09T05:16:03.650Z,2.72
2022-08-09T05:18:39.940Z,2.95
2022-08-09T05:21:24.820Z,2.75
2022-08-09T05:24:01.974Z,3.08
2022-08-09T05:26:45.538Z,2.80
2022-08-09T05:29:21.791Z,2.97
2022-08-09T05:31:58.500Z,3.10
2022-08-09T05:34:30.736Z,3.00
2022-08-09T05:37:06.200Z,2.92
2022-08-09T05:39:42.542Z,3.03
2022-08-09T05:42:17.540Z,3.15
2022-08-09T05:44:52.411Z,3.45
2022-08-09T05:47:23.089Z,3.47
2022-08-09T05:50:32.410Z,3.25
2022-08-09T05:52:42.974Z,3.60
2022-08-09T05:55:18.245Z,3.10
2022-08-09T05:57:57.392Z,3.60
2022-08-09T06:00:29.910Z,3.17
2022-08-09T06:03:01.067Z,3.67
2022-08-09T06:05:58.239Z,3.40
2022-08-09T06:08:24.081Z,3.22
2022-08-09T06:10:55.689Z,3.45
2022-08-09T06:13:28.366Z,2.95
2022-08-09T06:15:58.084Z,3.15
2022-08-09T06:18:31.470Z,3.55
2022-08-09T06:21:00.829Z,3.50
2022-08-09T06:23:55.520Z,3.08
2022-08-09T06:26:22.716Z,3.30
2022-08-09T06:29:05.450Z,3.03
2022-08-09T06:31:39.078Z,3.58
2022-08-09T06:34:09.889Z,3.33
2022-08-09T06:36:42.907Z,3.60
2022-08-09T06:39:13.656Z,3.15
2022-08-09T06:42:07.997Z,3.22
2022-08-09T06:44:35.551Z,3.10
2022-08-09T06:47:05.596Z,2.90
2022-08-09T06:49:52.384Z,3.08
2022-08-09T06:52:27.393Z,3.50
2022-08-09T06:54:56.707Z,2.97
2022-08-09T06:58:01.210Z,3.13
2022-08-09T07:00:56.190Z,2.92
2022-08-09T07:03:06.965Z,2.95
2022-08-09T07:06:02.369Z,3.20
2022-08-09T07:08:25.583Z,3.22
2022-08-09T07:10:59.859Z,3.30
2022-08-09T07:13:45.123Z,3.00
2022-08-09T07:16:43.013Z,3.20
2022-08-09T07:19:15.794Z,3.10
2022-08-09T07:21:57.730Z,2.97
2022-08-09T07:24:32.748Z,2.78
2022-08-09T07:27:34.218Z,3.05
2022-08-09T07:30:01.270Z,3.28
2022-08-09T07:32:34.241Z,2.92
2022-08-09T07:35:08.055Z,2.80
2022-08-09T07:37:43.428Z,2.42
2022-08-09T07:40:17.146Z,2.75
2022-08-09T07:42:52.412Z,2.95
2022-08-09T07:45:38.348Z,3.00
2022-08-09T07:48:29.591Z,2.70
2022-08-09T07:51:09.824Z,3.15
2022-08-09T07:54:07.375Z,2.50
2022-08-09T07:56:44.675Z,2.65
2022-08-09T07:59:34.790Z,2.90
2022-08-09T08:02:08.990Z,2.53
2022-08-09T08:04:41.709Z,2.90
2022-08-09T08:08:43.660Z,3.72
2022-08-09T08:10:10.888Z,2.50
2022-08-09T08:12:45.209Z,2.78
2022-08-09T08:15:23.000Z,2.30
2022-08-09T08:17:58.197Z,2.42
2022-08-09T08:20:33.108Z,2.50
2022-08-09T08:23:06.737Z,2.42
2022-08-09T08:25:48.355Z,2.83
2022-08-09T08:28:32.285Z,2.83
2022-08-09T08:31:14.127Z,2.78
2022-08-09T08:33:52.322Z,2.63
2022-08-09T08:36:29.706Z,2.55
2022-08-09T08:39:00.676Z,2.83
2022-08-09T08:41:50.605Z,2.67
2022-08-09T08:44:27.344Z,2.40
2022-08-09T08:47:05.003Z,2.60
2022-08-09T08:49:48.374Z,2.90
2022-08-09T08:52:57.492Z,3.05
2022-08-09T08:55:15.068Z,2.35
2022-08-09T08:57:56.586Z,2.72
2022-08-09T09:00:30.344Z,2.63
2022-08-09T09:03:12.240Z,2.53
2022-08-09T09:05:59.970Z,2.58
2022-08-09T09:08:40.240Z,2.35
2022-08-09T09:11:13.792Z,2.70
2022-08-09T09:13:56.349Z,2.55
2022-08-09T09:16:32.229Z,2.35
2022-08-09T09:22:07.463Z,2.30
2022-08-09T09:24:43.960Z,2.50
2022-08-09T09:27:22.054Z,2.45
2022-08-09T09:30:28.706Z,3.03
2022-08-09T09:33:16.728Z,2.17
2022-08-09T09:36:02.242Z,2.67
2022-08-09T09:38:44.527Z,2.55
2022-08-09T09:41:33.391Z,2.95
2022-08-09T09:44:31.620Z,3.03
2022-08-09T09:47:08.455Z,2.47
2022-08-09T09:50:13.289Z,2.60
2022-08-09T09:52:36.276Z,2.83
2022-08-09T09:55:23.845Z,3.03
2022-08-09T09:58:18.932Z,2.70
2022-08-09T10:00:54.806Z,2.50
2022-08-09T10:03:43.680Z,2.38
2022-08-09T10:06:14.330Z,2.72
2022-08-09T10:08:55.251Z,2.67
2022-08-09T10:11:54.297Z,2.72
2022-08-09T10:14:30.602Z,2.70
2022-08-09T10:17:38.893Z,2.67
2022-08-09T10:20:01.366Z,2.65
2022-08-09T10:22:35.423Z,2.60
2022-08-09T10:25:11.880Z,2.88
2022-08-09T10:27:45.306Z,2.90
2022-08-09T10:34:04.476Z,2.67
2022-08-09T10:36:09.390Z,2.80
2022-08-09T10:38:55.941Z,3.38
2022-08-09T10:41:27.987Z,2.67
2022-08-09T10:44:01.420Z,2.63
2022-08-09T10:47:00.705Z,2.50
2022-08-09T10:49:51.434Z,2.55
2022-08-09T10:52:42.847Z,2.50
2022-08-09T10:55:25.383Z,2.72
2022-08-09T10:58:00.147Z,2.50
2022-08-09T11:00:51.092Z,3.05
2022-08-09T11:03:50.098Z,2.53
2022-08-09T11:06:24.354Z,2.60
2022-08-09T11:08:54.916Z,2.45
2022-08-09T11:12:07.328Z,2.67
2022-08-09T11:14:38.373Z,2.53
2022-08-09T11:17:53.465Z,2.90
2022-08-09T11:20:49.622Z,3.00
2022-08-09T11:23:24.045Z,2.28
2022-08-09T11:26:00.281Z,3.00
2022-08-09T11:28:56.030Z,2.33
2022-08-09T11:31:49.091Z,2.28
2022-08-09T11:34:41.897Z,2.50
2022-08-09T11:37:31.281Z,2.38
2022-08-09T11:40:13.375Z,2.60
2022-08-09T11:42:49.461Z,2.42
2022-08-09T11:45:42.674Z,2.38
2022-08-09T11:48:25.276Z,2.20
2022-08-09T11:52:49.044Z,2.00
2022-08-09T11:54:33.194Z,2.20
2022-08-09T11:57:48.042Z,1.83
2022-08-09T12:00:31.141Z,2.30
2022-08-09T12:03:31.741Z,2.25
2022-08-09T12:05:53.186Z,2.42
2022-08-09T12:08:24.041Z,2.20
2022-08-09T12:10:58.044Z,2.10
2022-08-09T12:14:10.195Z,2.30
2022-08-09T12:16:37.418Z,2.53
2022-08-09T12:19:12.061Z,2.05
2022-08-09T12:21:50.273Z,2.25
2022-08-09T12:24:25.122Z,2.03
2022-08-09T12:29:09.803Z,2.00
2022-08-09T12:29:59.999Z,2.13
2022-08-09T12:32:34.242Z,2.10
2022-08-09T12:35:05.747Z,2.20
2022-08-09T12:37:49.655Z,2.30
2022-08-09T12:40:23.233Z,2.13
2022-08-09T12:42:56.271Z,2.30
2022-08-09T12:45:33.554Z,2.15
2022-08-09T12:48:07.873Z,2.35
2022-08-09T12:50:41.374Z,1.92
2022-08-09T12:53:34.994Z,2.30
2022-08-09T12:56:44.282Z,2.20
2022-08-09T12:59:14.362Z,2.60
2022-08-09T13:01:48.769Z,2.35
2022-08-09T13:04:36.420Z,2.05
2022-08-09T13:07:19.449Z,2.28
2022-08-09T13:10:02.199Z,2.05
2022-08-09T13:12:32.123Z,2.10
2022-08-09T13:15:08.424Z,2.20
2022-08-09T13:18:02.604Z,2.17
2022-08-09T13:20:37.924Z,2.15
2022-08-09T13:24:16.310Z,2.00
2022-08-09T13:26:37.518Z,2.65
2022-08-09T13:29:08.600Z,2.20
2022-08-09T13:32:19.983Z,1.90
2022-08-09T13:34:46.081Z,2.13
2022-08-09T13:37:24.721Z,2.40
2022-08-09T13:41:46.297Z,2.38
2022-08-09T13:42:57.052Z,2.40
2022-08-09T13:45:32.399Z,2.50
2022-08-09T13:48:17.511Z,2.58
2022-08-09T13:50:48.315Z,2.55
2022-08-09T13:53:18.121Z,3.40
2022-08-09T13:55:48.193Z,3.08
2022-08-09T13:58:17.794Z,3.40
2022-08-09T14:00:52.408Z,2.83
2022-08-09T14:04:01.436Z,2.75
2022-08-09T14:06:25.742Z,3.47
2022-08-09T14:08:58.686Z,3.25
2022-08-09T14:11:28.154Z,2.85
2022-08-09T14:14:22.970Z,2.88
2022-08-09T14:16:47.138Z,2.67
2022-08-09T14:19:17.972Z,3.05
2022-08-09T14:21:50.239Z,3.05
2022-08-09T14:24:22.286Z,2.58
2022-08-09T14:27:02.373Z,3.05
2022-08-09T14:30:35.789Z,2.80
2022-08-09T14:32:30.831Z,3.13
2022-08-09T14:35:02.492Z,2.80
2022-08-09T14:37:41.156Z,2.85
2022-08-09T14:40:37.883Z,2.83
2022-08-09T14:43:10.889Z,2.78
2022-08-09T14:46:54.312Z,3.30
2022-08-09T14:48:37.610Z,3.20
2022-08-09T14:51:09.594Z,3.15
2022-08-09T14:53:39.869Z,2.70
2022-08-09T14:56:14.915Z,3.05
2022-08-09T14:58:45.687Z,3.10
2022-08-09T15:01:15.913Z,3.28
2022-08-09T15:03:49.307Z,2.78
2022-08-09T15:06:20.884Z,3.15
2022-08-09T15:08:56.704Z,3.13
2022-08-09T15:11:26.505Z,2.97
2022-08-09T15:14:04.654Z,2.83
2022-08-09T15:16:43.159Z,2.80
2022-08-09T15:19:17.927Z,3.22
2022-08-09T15:22:01.085Z,3.05
2022-08-09T15:24:31.883Z,2.45
2022-08-09T15:27:01.353Z,2.70
2022-08-09T15:30:58.895Z,3.10
2022-08-09T15:32:28.565Z,2.67
2022-08-09T15:35:01.191Z,3.25
2022-08-09T15:37:56.275Z,3.20
2022-08-09T15:40:32.401Z,3.15
2022-08-09T15:43:02.900Z,2.92
2022-08-09T15:45:51.700Z,3.03
2022-08-09T15:48:29.072Z,3.10
2022-08-09T15:50:59.938Z,3.00
2022-08-09T15:54:05.123Z,3.30
2022-08-09T15:56:28.986Z,3.65
2022-08-09T15:59:00.550Z,3.67
2022-08-09T16:01:35.630Z,3.38
2022-08-09T16:04:05.855Z,3.70
2022-08-09T16:06:44.676Z,3.38
2022-08-09T16:09:32.504Z,3.50
2022-08-09T16:12:11.636Z,3.30
2022-08-09T16:14:41.143Z,3.67
2022-08-09T16:17:12.053Z,3.60
2022-08-09T16:19:49.507Z,4.03
2022-08-09T16:22:34.823Z,4.00
2022-08-09T16:25:07.752Z,3.65
2022-08-09T16:27:38.012Z,3.53
2022-08-09T16:30:14.985Z,4.70
2022-08-09T16:33:10.248Z,5.43
2022-08-09T16:35:57.951Z,4.70
2022-08-09T16:38:30.162Z,5.43
2022-08-09T16:41:03.989Z,5.47
2022-08-09T16:43:33.669Z,6.35
2022-08-09T16:46:12.412Z,6.45
2022-08-09T16:48:55.961Z,6.35
2022-08-09T16:51:31.566Z,4.93
2022-08-09T16:54:27.747Z,5.13
2022-08-09T16:56:55.196Z,5.47
2022-08-09T16:59:25.851Z,4.90
2022-08-09T17:02:04.126Z,4.90
2022-08-09T17:04:34.850Z,4.80
2022-08-09T17:08:45.642Z,4.45
2022-08-09T17:10:01.863Z,4.43
2022-08-09T17:12:35.062Z,5.07
2022-08-09T17:15:31.418Z,5.30
2022-08-09T17:18:00.769Z,5.32
2022-08-09T17:20:36.367Z,4.82
2022-08-09T17:23:10.438Z,4.90
2022-08-09T17:25:45.113Z,4.78
2022-08-09T17:28:24.123Z,4.43
2022-08-09T17:30:56.214Z,5.07
2022-08-09T17:33:25.540Z,4.88
2022-08-09T17:35:54.975Z,4.75
2022-08-09T17:38:32.878Z,4.65
2022-08-09T17:41:06.490Z,4.28
2022-08-09T17:43:38.246Z,4.45
2022-08-09T17:46:09.880Z,4.20
2022-08-09T17:48:51.777Z,4.30
2022-08-09T17:51:23.225Z,4.18
2022-08-09T17:53:55.885Z,4.07
2022-08-09T17:56:29.247Z,4.18
2022-08-09T17:59:09.563Z,4.53
2022-08-09T18:02:06.824Z,4.25
2022-08-09T18:04:31.207Z,4.70
2022-08-09T18:07:04.626Z,4.18
2022-08-09T18:09:40.090Z,4.00
2022-08-09T18:12:17.614Z,4.32
2022-08-09T18:14:54.822Z,4.30
2022-08-09T18:18:01.664Z,4.18
2022-08-09T18:20:54.368Z,3.72
2022-08-09T18:23:07.030Z,4.00
2022-08-09T18:25:50.135Z,3.75
2022-08-09T18:30:39.093Z,4.57
2022-08-09T18:31:14.495Z,3.75
2022-08-09T18:33:53.110Z,4.18
2022-08-09T18:36:26.031Z,4.05
2022-08-09T18:39:02.274Z,4.20
2022-08-09T18:41:34.384Z,4.03
2022-08-09T18:44:13.698Z,4.13
2022-08-09T18:47:04.200Z,4.05
2022-08-09T18:49:43.204Z,3.75
2022-08-09T18:52:18.887Z,4.25
2022-08-09T18:54:54.272Z,3.80
2022-08-09T18:57:23.919Z,3.83
2022-08-09T19:00:09.545Z,3.65
2022-08-09T19:02:41.466Z,3.72
2022-08-09T19:05:20.650Z,3.67
2022-08-09T19:08:10.183Z,3.90
2022-08-09T19:10:42.464Z,3.53
2022-08-09T19:13:19.279Z,3.70
2022-08-09T19:15:55.845Z,3.50
2022-08-09T19:18:33.870Z,3.58
2022-08-09T19:21:09.384Z,3.35
2022-08-09T19:24:36.456Z,2.90
2022-08-09T19:26:32.322Z,2.63
2022-08-09T19:29:15.547Z,2.55
2022-08-09T19:31:51.045Z,2.70
2022-08-09T19:34:24.543Z,2.42
2022-08-09T19:36:57.639Z,2.45
2022-08-09T19:39:43.382Z,2.45
2022-08-09T19:42:19.434Z,2.53
2022-08-09T19:44:51.284Z,2.47
2022-08-09T19:47:23.893Z,2.70
2022-08-09T19:50:10.200Z,2.67
2022-08-09T19:52:49.703Z,2.25
2022-08-09T19:55:30.430Z,2.40
2022-08-09T19:58:00.504Z,2.42
2022-08-09T20:00:30.252Z,2.38
2022-08-09T20:04:09.923Z,2.72
2022-08-09T20:05:50.527Z,2.30
2022-08-09T20:08:25.112Z,2.42
2022-08-09T20:11:04.868Z,2.42
2022-08-09T20:13:36.965Z,2.60
2022-08-09T20:16:33.947Z,2.10
2022-08-09T20:19:42.796Z,2.55
2022-08-09T20:21:56.040Z,2.60
2022-08-09T20:24:29.467Z,2.45
2022-08-09T20:27:07.978Z,2.30
2022-08-09T20:29:39.238Z,2.20
2022-08-09T20:32:30.923Z,2.58
2022-08-09T20:35:00.012Z,2.58
2022-08-09T20:38:18.434Z,2.10
2022-08-09T20:40:26.400Z,2.25
2022-08-09T20:43:00.165Z,2.00
2022-08-09T20:46:01.711Z,2.30
2022-08-09T20:48:31.985Z,2.00
2022-08-09T20:51:03.098Z,2.17
2022-08-09T20:53:36.663Z,2.42
2022-08-09T20:56:20.231Z,2.30
2022-08-09T20:58:54.568Z,2.00
2022-08-09T21:01:34.342Z,2.35
2022-08-09T21:05:51.484Z,1.85
2022-08-09T21:07:13.192Z,1.80
2022-08-09T21:09:56.396Z,1.75
2022-08-09T21:15:23.709Z,2.00
2022-08-09T21:18:20.975Z,1.60
2022-08-09T21:20:54.508Z,1.80
2022-08-09T21:23:36.127Z,1.85
2022-08-09T21:26:16.361Z,1.80
2022-08-09T21:28:51.876Z,1.67
2022-08-09T21:31:48.519Z,1.50
2022-08-09T21:34:21.106Z,1.77
2022-08-09T21:36:58.147Z,1.90
2022-08-09T21:39:27.945Z,1.75
2022-08-09T21:42:12.427Z,1.52
2022-08-09T21:44:42.799Z,1.85
2022-08-09T21:47:19.958Z,1.88
2022-08-09T21:49:49.731Z,1.70
2022-08-09T21:52:24.494Z,1.77
2022-08-09T21:55:04.542Z,1.65
2022-08-09T21:57:38.174Z,1.70
2022-08-09T22:00:31.778Z,1.75
2022-08-09T22:03:04.596Z,1.70
2022-08-09T22:05:37.226Z,1.98
2022-08-09T22:08:12.973Z,1.90
2022-08-09T22:11:49.646Z,1.77
2022-08-09T22:13:35.767Z,1.60
2022-08-09T22:16:08.382Z,1.95
2022-08-09T22:18:52.981Z,1.70
2022-08-09T22:21:24.975Z,1.80
2022-08-09T22:24:01.309Z,1.77
2022-08-09T22:26:35.262Z,1.77
2022-08-09T22:29:10.095Z,1.55
2022-08-09T22:31:53.261Z,1.50
2022-08-09T22:34:26.975Z,1.70
2022-08-09T22:36:56.952Z,1.80
2022-08-09T22:39:56.091Z,1.65
2022-08-09T22:42:21.276Z,1.58
2022-08-09T22:45:00.445Z,1.33
2022-08-09T22:48:15.665Z,1.58
2022-08-09T22:50:33.250Z,1.65
2022-08-09T22:53:03.484Z,1.38
2022-08-09T22:56:05.914Z,1.58
2022-08-09T22:58:33.078Z,1.40
2022-08-09T23:01:05.693Z,1.60
2022-08-09T23:04:04.646Z,1.50
2022-08-09T23:06:34.838Z,1.42
2022-08-09T23:09:05.670Z,1.30
2022-08-09T23:11:35.005Z,1.63
2022-08-09T23:14:09.665Z,1.52
2022-08-09T23:16:41.164Z,1.60
2022-08-09T23:19:10.500Z,1.42
2022-08-09T23:21:39.992Z,1.40
2022-08-09T23:24:10.301Z,1.63
2022-08-09T23:26:39.843Z,1.50
2022-08-09T23:29:10.049Z,1.50
2022-08-09T23:31:39.550Z,1.50
2022-08-09T23:34:10.447Z,1.73
2022-08-09T23:36:39.854Z,1.45
2022-08-09T23:39:09.338Z,1.73
2022-08-09T23:41:38.679Z,1.30
2022-08-09T23:44:08.014Z,1.58
2022-08-09T23:46:37.342Z,1.50
2022-08-09T23:49:06.634Z,1.25
2022-08-09T23:51:37.315Z,1.77
2022-08-09T23:54:06.791Z,1.60
2022-08-09T23:56:52.631Z,1.58
2022-08-09T23:59:25.119Z,1.27
